Terminal Aerodrome Forecast
Issued by NWS

Home | Current Version | Previous Version | Text Only | Print | Product List | Glossary On
Versions: 1 2 3 4 5 6 7 8 9 10 11 12 13 14 15
000
FTUS42 TJSJ 252200 AAA
TAFIST
TAF AMD
TIST 252213Z 2522/2618 09009KT P6SM VCSH FEW022
     FM252300 09012KT P6SM VCSH FEW025
     FM261330 10017G25KT P6SM FEW025 SCT050
      AMD NOT SKED=

USA.gov is the U.S. government's official web portal to all federal, state and local government web resources and services.